Главная страница
METAR-TAF:

METAR-TAF

Аэропорты :

Нью-Хейвен, Коннектикут, США

широта: 41-15-50N, долгота: 072-53-14W, высота над уровнем моря: 4 м

Текущие метеонаблюдения

Эта сводка был подготовлена 1 час и 2 минут назад, в 01:53 UTC
Ветер 9 Узел от северно-северо-западный
Температура -1°C
Влажность 40%
Давление 1019 hPa
Видимость: 16.1 км
ясное небо

METAR: KHVN 130153Z 34009KT 10SM CLR M01/M13 A3009 RMK AO2 SLP187 T10111133

Время: 21:55 (02:55 UTC)


TAF: отсутствует

Метеонаблюдения и прогнозы для более 4000 аэропортов (сводки METAR и TAF).

Имеющиеся станции представлены на карте желтыми и красными точками.

Чтобы увидеть название станции, наведите на нее мышь.

Затем щелкните, чтобы увидеть метеонаблюдения и метеопрогнозы.

Управление картой: чтобы увеличить масштаб, щелкните зеленые кнопки с черным крестиком; чтобы уменьшить масштаб, щелкните зеленую кнопку с тире; для просмотра соседних карт щелкайте зеленые стрелки.


METAR-TAF: